sensor_id;sensor_type;location;lat;lon;timestamp;P1;durP1;ratioP1;P2;durP2;ratioP2
10430;SDS011;5262;59.958;17.726;2023-07-13T00:01:29;7.77;;;4.97;;
10430;SDS011;5262;59.958;17.726;2023-07-13T00:03:56;6.17;;;4.60;;
10430;SDS011;5262;59.958;17.726;2023-07-13T00:06:22;7.53;;;4.77;;
10430;SDS011;5262;59.958;17.726;2023-07-13T00:08:48;6.57;;;4.80;;
10430;SDS011;5262;59.958;17.726;2023-07-13T00:11:14;6.93;;;4.83;;
10430;SDS011;5262;59.958;17.726;2023-07-13T00:13:42;6.40;;;4.53;;
10430;SDS011;5262;59.958;17.726;2023-07-13T00:16:08;7.43;;;3.93;;
10430;SDS011;5262;59.958;17.726;2023-07-13T00:18:35;5.20;;;4.60;;
10430;SDS011;5262;59.958;17.726;2023-07-13T00:21:02;5.67;;;4.57;;
10430;SDS011;5262;59.958;17.726;2023-07-13T00:23:35;6.63;;;4.83;;
10430;SDS011;5262;59.958;17.726;2023-07-13T00:26:04;5.53;;;4.87;;
10430;SDS011;5262;59.958;17.726;2023-07-13T00:28:30;6.10;;;4.97;;
10430;SDS011;5262;59.958;17.726;2023-07-13T00:30:57;6.13;;;5.23;;
10430;SDS011;5262;59.958;17.726;2023-07-13T00:33:22;6.77;;;5.00;;
10430;SDS011;5262;59.958;17.726;2023-07-13T00:35:48;5.20;;;4.60;;
10430;SDS011;5262;59.958;17.726;2023-07-13T00:38:14;5.50;;;4.60;;
10430;SDS011;5262;59.958;17.726;2023-07-13T00:40:40;3.67;;;3.37;;
10430;SDS011;5262;59.958;17.726;2023-07-13T00:43:11;5.37;;;4.27;;
10430;SDS011;5262;59.958;17.726;2023-07-13T00:48:11;4.53;;;4.13;;
10430;SDS011;5262;59.958;17.726;2023-07-13T00:50:39;5.27;;;4.10;;
10430;SDS011;5262;59.958;17.726;2023-07-13T00:53:06;5.80;;;3.97;;
10430;SDS011;5262;59.958;17.726;2023-07-13T00:55:32;6.70;;;4.23;;
10430;SDS011;5262;59.958;17.726;2023-07-13T00:57:58;5.03;;;4.33;;
10430;SDS011;5262;59.958;17.726;2023-07-13T01:00:24;6.03;;;4.00;;
10430;SDS011;5262;59.958;17.726;2023-07-13T01:02:51;4.47;;;4.07;;
10430;SDS011;5262;59.958;17.726;2023-07-13T01:05:19;5.23;;;4.40;;
10430;SDS011;5262;59.958;17.726;2023-07-13T01:07:47;3.93;;;3.53;;
10430;SDS011;5262;59.958;17.726;2023-07-13T01:10:15;4.33;;;3.17;;
10430;SDS011;5262;59.958;17.726;2023-07-13T01:12:41;2.73;;;2.43;;
10430;SDS011;5262;59.958;17.726;2023-07-13T01:18:00;2.97;;;2.63;;
10430;SDS011;5262;59.958;17.726;2023-07-13T01:20:27;3.90;;;2.60;;
10430;SDS011;5262;59.958;17.726;2023-07-13T01:22:52;2.93;;;2.63;;
10430;SDS011;5262;59.958;17.726;2023-07-13T01:25:18;2.77;;;2.57;;
10430;SDS011;5262;59.958;17.726;2023-07-13T01:27:45;3.97;;;3.13;;
10430;SDS011;5262;59.958;17.726;2023-07-13T01:30:11;2.90;;;2.70;;
10430;SDS011;5262;59.958;17.726;2023-07-13T01:32:36;3.53;;;2.93;;
10430;SDS011;5262;59.958;17.726;2023-07-13T01:35:02;2.77;;;2.57;;
10430;SDS011;5262;59.958;17.726;2023-07-13T01:37:28;3.77;;;2.60;;
10430;SDS011;5262;59.958;17.726;2023-07-13T01:39:58;6.20;;;3.07;;
10430;SDS011;5262;59.958;17.726;2023-07-13T01:42:24;3.63;;;3.10;;
10430;SDS011;5262;59.958;17.726;2023-07-13T01:44:49;4.57;;;2.87;;
10430;SDS011;5262;59.958;17.726;2023-07-13T01:47:15;5.17;;;2.60;;
10430;SDS011;5262;59.958;17.726;2023-07-13T01:49:41;6.67;;;3.20;;
10430;SDS011;5262;59.958;17.726;2023-07-13T01:52:07;4.03;;;3.10;;
10430;SDS011;5262;59.958;17.726;2023-07-13T01:54:32;5.27;;;2.90;;
10430;SDS011;5262;59.958;17.726;2023-07-13T01:56:59;6.33;;;2.90;;
10430;SDS011;5262;59.958;17.726;2023-07-13T01:59:25;5.37;;;3.40;;
10430;SDS011;5262;59.958;17.726;2023-07-13T02:01:50;3.97;;;3.10;;
10430;SDS011;5262;59.958;17.726;2023-07-13T02:04:16;3.93;;;3.03;;
10430;SDS011;5262;59.958;17.726;2023-07-13T02:06:41;3.70;;;3.07;;
10430;SDS011;5262;59.958;17.726;2023-07-13T02:09:07;3.37;;;2.83;;
10430;SDS011;5262;59.958;17.726;2023-07-13T02:11:33;7.17;;;3.80;;
10430;SDS011;5262;59.958;17.726;2023-07-13T02:13:59;3.50;;;3.00;;
10430;SDS011;5262;59.958;17.726;2023-07-13T02:16:26;6.63;;;3.37;;
10430;SDS011;5262;59.958;17.726;2023-07-13T02:18:52;5.03;;;3.40;;
10430;SDS011;5262;59.958;17.726;2023-07-13T02:21:20;4.10;;;3.63;;
10430;SDS011;5262;59.958;17.726;2023-07-13T02:23:46;3.83;;;3.33;;
10430;SDS011;5262;59.958;17.726;2023-07-13T02:26:12;6.97;;;3.60;;
10430;SDS011;5262;59.958;17.726;2023-07-13T02:28:38;4.97;;;3.70;;
10430;SDS011;5262;59.958;17.726;2023-07-13T02:31:12;5.20;;;3.07;;
10430;SDS011;5262;59.958;17.726;2023-07-13T02:33:39;6.47;;;3.57;;
10430;SDS011;5262;59.958;17.726;2023-07-13T02:36:05;4.37;;;3.73;;
10430;SDS011;5262;59.958;17.726;2023-07-13T02:38:34;7.77;;;3.33;;
10430;SDS011;5262;59.958;17.726;2023-07-13T02:41:01;5.30;;;3.90;;
10430;SDS011;5262;59.958;17.726;2023-07-13T02:43:28;6.80;;;4.50;;
10430;SDS011;5262;59.958;17.726;2023-07-13T02:45:54;7.57;;;3.90;;
10430;SDS011;5262;59.958;17.726;2023-07-13T02:48:20;5.37;;;4.03;;
10430;SDS011;5262;59.958;17.726;2023-07-13T02:50:46;6.37;;;4.03;;
10430;SDS011;5262;59.958;17.726;2023-07-13T02:53:12;4.67;;;3.60;;
10430;SDS011;5262;59.958;17.726;2023-07-13T02:55:37;5.97;;;3.87;;
10430;SDS011;5262;59.958;17.726;2023-07-13T02:58:04;7.33;;;4.10;;
10430;SDS011;5262;59.958;17.726;2023-07-13T03:00:30;6.87;;;3.87;;
10430;SDS011;5262;59.958;17.726;2023-07-13T03:02:56;5.10;;;3.73;;
10430;SDS011;5262;59.958;17.726;2023-07-13T03:05:22;7.47;;;3.70;;
10430;SDS011;5262;59.958;17.726;2023-07-13T03:07:48;4.87;;;3.97;;
10430;SDS011;5262;59.958;17.726;2023-07-13T03:10:14;8.07;;;4.10;;
10430;SDS011;5262;59.958;17.726;2023-07-13T03:12:41;6.97;;;4.03;;
10430;SDS011;5262;59.958;17.726;2023-07-13T03:15:07;7.33;;;4.17;;
10430;SDS011;5262;59.958;17.726;2023-07-13T03:17:33;7.60;;;4.73;;
10430;SDS011;5262;59.958;17.726;2023-07-13T03:19:58;8.13;;;4.40;;
10430;SDS011;5262;59.958;17.726;2023-07-13T03:22:24;5.77;;;4.50;;
10430;SDS011;5262;59.958;17.726;2023-07-13T03:24:49;9.20;;;4.40;;
10430;SDS011;5262;59.958;17.726;2023-07-13T03:27:16;6.20;;;4.30;;
10430;SDS011;5262;59.958;17.726;2023-07-13T03:29:42;7.20;;;4.93;;
10430;SDS011;5262;59.958;17.726;2023-07-13T03:32:08;7.70;;;5.07;;
10430;SDS011;5262;59.958;17.726;2023-07-13T03:34:34;7.17;;;4.23;;
10430;SDS011;5262;59.958;17.726;2023-07-13T03:37:00;5.63;;;4.30;;
10430;SDS011;5262;59.958;17.726;2023-07-13T03:39:25;9.00;;;4.70;;
10430;SDS011;5262;59.958;17.726;2023-07-13T03:41:51;6.87;;;4.30;;
10430;SDS011;5262;59.958;17.726;2023-07-13T03:44:18;8.53;;;5.70;;
10430;SDS011;5262;59.958;17.726;2023-07-13T03:46:43;7.70;;;4.47;;
10430;SDS011;5262;59.958;17.726;2023-07-13T03:49:10;9.10;;;4.70;;
10430;SDS011;5262;59.958;17.726;2023-07-13T03:51:35;5.60;;;4.70;;
10430;SDS011;5262;59.958;17.726;2023-07-13T03:54:01;8.17;;;4.47;;
10430;SDS011;5262;59.958;17.726;2023-07-13T03:56:27;9.90;;;5.30;;
10430;SDS011;5262;59.958;17.726;2023-07-13T03:58:55;6.67;;;4.63;;
10430;SDS011;5262;59.958;17.726;2023-07-13T04:01:21;7.00;;;4.33;;
10430;SDS011;5262;59.958;17.726;2023-07-13T04:03:48;8.43;;;4.73;;
10430;SDS011;5262;59.958;17.726;2023-07-13T04:06:19;9.67;;;5.10;;
10430;SDS011;5262;59.958;17.726;2023-07-13T04:08:48;7.87;;;4.80;;
10430;SDS011;5262;59.958;17.726;2023-07-13T04:11:15;13.20;;;5.33;;
10430;SDS011;5262;59.958;17.726;2023-07-13T04:13:42;8.03;;;5.13;;
10430;SDS011;5262;59.958;17.726;2023-07-13T04:16:07;8.10;;;5.03;;
10430;SDS011;5262;59.958;17.726;2023-07-13T04:18:33;5.57;;;4.40;;
10430;SDS011;5262;59.958;17.726;2023-07-13T04:20:58;9.87;;;4.60;;
10430;SDS011;5262;59.958;17.726;2023-07-13T04:23:24;5.27;;;4.40;;
10430;SDS011;5262;59.958;17.726;2023-07-13T04:25:51;6.60;;;4.37;;
10430;SDS011;5262;59.958;17.726;2023-07-13T04:28:18;5.97;;;4.50;;
10430;SDS011;5262;59.958;17.726;2023-07-13T04:30:46;7.10;;;4.50;;
10430;SDS011;5262;59.958;17.726;2023-07-13T04:33:11;5.53;;;4.50;;
10430;SDS011;5262;59.958;17.726;2023-07-13T04:35:37;9.17;;;4.00;;
10430;SDS011;5262;59.958;17.726;2023-07-13T04:38:03;7.63;;;3.80;;
10430;SDS011;5262;59.958;17.726;2023-07-13T04:40:29;8.63;;;4.30;;
10430;SDS011;5262;59.958;17.726;2023-07-13T04:42:54;5.50;;;3.60;;
10430;SDS011;5262;59.958;17.726;2023-07-13T04:45:21;6.90;;;3.63;;
10430;SDS011;5262;59.958;17.726;2023-07-13T04:47:47;6.03;;;3.57;;
10430;SDS011;5262;59.958;17.726;2023-07-13T04:50:13;4.63;;;3.53;;
10430;SDS011;5262;59.958;17.726;2023-07-13T04:52:43;9.20;;;3.50;;
10430;SDS011;5262;59.958;17.726;2023-07-13T04:55:09;4.57;;;3.30;;
10430;SDS011;5262;59.958;17.726;2023-07-13T04:57:35;5.30;;;3.43;;
10430;SDS011;5262;59.958;17.726;2023-07-13T05:00:01;6.87;;;3.43;;
10430;SDS011;5262;59.958;17.726;2023-07-13T05:02:31;6.70;;;3.17;;
10430;SDS011;5262;59.958;17.726;2023-07-13T05:04:58;5.27;;;3.13;;
10430;SDS011;5262;59.958;17.726;2023-07-13T05:07:24;4.53;;;3.20;;
10430;SDS011;5262;59.958;17.726;2023-07-13T05:09:50;8.60;;;3.40;;
10430;SDS011;5262;59.958;17.726;2023-07-13T05:12:16;8.33;;;2.83;;
10430;SDS011;5262;59.958;17.726;2023-07-13T05:14:42;8.07;;;2.90;;
10430;SDS011;5262;59.958;17.726;2023-07-13T05:17:08;6.23;;;3.33;;
10430;SDS011;5262;59.958;17.726;2023-07-13T05:19:34;5.47;;;2.70;;
10430;SDS011;5262;59.958;17.726;2023-07-13T05:22:00;4.67;;;3.30;;
10430;SDS011;5262;59.958;17.726;2023-07-13T05:24:26;7.90;;;2.57;;
10430;SDS011;5262;59.958;17.726;2023-07-13T05:26:52;6.00;;;2.83;;
10430;SDS011;5262;59.958;17.726;2023-07-13T05:29:18;7.17;;;3.03;;
10430;SDS011;5262;59.958;17.726;2023-07-13T05:31:44;3.97;;;2.00;;
10430;SDS011;5262;59.958;17.726;2023-07-13T05:34:10;4.63;;;2.47;;
10430;SDS011;5262;59.958;17.726;2023-07-13T05:36:35;5.97;;;2.90;;
10430;SDS011;5262;59.958;17.726;2023-07-13T05:39:02;5.93;;;2.37;;
10430;SDS011;5262;59.958;17.726;2023-07-13T05:41:28;3.73;;;2.20;;
10430;SDS011;5262;59.958;17.726;2023-07-13T05:43:54;5.03;;;2.40;;
10430;SDS011;5262;59.958;17.726;2023-07-13T05:46:20;5.40;;;2.40;;
10430;SDS011;5262;59.958;17.726;2023-07-13T05:48:45;4.57;;;1.83;;
10430;SDS011;5262;59.958;17.726;2023-07-13T05:51:11;3.93;;;2.13;;
10430;SDS011;5262;59.958;17.726;2023-07-13T05:53:37;6.47;;;1.97;;
10430;SDS011;5262;59.958;17.726;2023-07-13T05:56:03;4.33;;;1.80;;
10430;SDS011;5262;59.958;17.726;2023-07-13T05:58:29;5.43;;;1.90;;
10430;SDS011;5262;59.958;17.726;2023-07-13T06:01:02;3.87;;;1.87;;
10430;SDS011;5262;59.958;17.726;2023-07-13T06:03:33;6.73;;;1.93;;
10430;SDS011;5262;59.958;17.726;2023-07-13T06:05:59;5.63;;;1.93;;
10430;SDS011;5262;59.958;17.726;2023-07-13T06:08:25;8.67;;;2.33;;
10430;SDS011;5262;59.958;17.726;2023-07-13T06:10:51;9.37;;;1.80;;
10430;SDS011;5262;59.958;17.726;2023-07-13T06:13:17;7.67;;;2.20;;
10430;SDS011;5262;59.958;17.726;2023-07-13T06:15:47;4.00;;;1.63;;
10430;SDS011;5262;59.958;17.726;2023-07-13T06:18:14;4.47;;;1.70;;
10430;SDS011;5262;59.958;17.726;2023-07-13T06:20:39;5.40;;;1.63;;
10430;SDS011;5262;59.958;17.726;2023-07-13T06:23:05;4.97;;;1.50;;
10430;SDS011;5262;59.958;17.726;2023-07-13T06:25:31;11.67;;;1.90;;
10430;SDS011;5262;59.958;17.726;2023-07-13T06:27:56;6.33;;;1.80;;
10430;SDS011;5262;59.958;17.726;2023-07-13T06:30:22;3.97;;;1.60;;
10430;SDS011;5262;59.958;17.726;2023-07-13T06:32:48;7.60;;;2.27;;
10430;SDS011;5262;59.958;17.726;2023-07-13T06:35:14;2.40;;;1.53;;
10430;SDS011;5262;59.958;17.726;2023-07-13T06:37:40;5.70;;;1.80;;
10430;SDS011;5262;59.958;17.726;2023-07-13T06:40:05;6.67;;;2.00;;
10430;SDS011;5262;59.958;17.726;2023-07-13T06:42:31;6.37;;;1.97;;
10430;SDS011;5262;59.958;17.726;2023-07-13T06:44:57;5.90;;;2.57;;
10430;SDS011;5262;59.958;17.726;2023-07-13T06:47:23;6.53;;;1.97;;
10430;SDS011;5262;59.958;17.726;2023-07-13T06:49:48;5.70;;;1.60;;
10430;SDS011;5262;59.958;17.726;2023-07-13T06:52:14;6.53;;;1.80;;
10430;SDS011;5262;59.958;17.726;2023-07-13T06:54:39;4.67;;;1.60;;
10430;SDS011;5262;59.958;17.726;2023-07-13T06:57:05;3.47;;;1.57;;
10430;SDS011;5262;59.958;17.726;2023-07-13T06:59:31;3.87;;;1.30;;
10430;SDS011;5262;59.958;17.726;2023-07-13T07:01:56;4.67;;;1.43;;
10430;SDS011;5262;59.958;17.726;2023-07-13T07:04:22;4.57;;;1.53;;
10430;SDS011;5262;59.958;17.726;2023-07-13T07:06:48;2.13;;;1.37;;
10430;SDS011;5262;59.958;17.726;2023-07-13T07:09:13;6.07;;;1.80;;
10430;SDS011;5262;59.958;17.726;2023-07-13T07:11:41;10.43;;;1.63;;
10430;SDS011;5262;59.958;17.726;2023-07-13T07:14:07;2.73;;;1.10;;
10430;SDS011;5262;59.958;17.726;2023-07-13T07:16:33;3.70;;;1.40;;
10430;SDS011;5262;59.958;17.726;2023-07-13T07:18:59;3.73;;;1.40;;
10430;SDS011;5262;59.958;17.726;2023-07-13T07:21:24;4.23;;;1.70;;
10430;SDS011;5262;59.958;17.726;2023-07-13T07:23:51;3.17;;;1.20;;
10430;SDS011;5262;59.958;17.726;2023-07-13T07:26:17;3.27;;;1.37;;
10430;SDS011;5262;59.958;17.726;2023-07-13T07:28:43;3.27;;;1.40;;
10430;SDS011;5262;59.958;17.726;2023-07-13T07:31:08;6.07;;;1.50;;
10430;SDS011;5262;59.958;17.726;2023-07-13T07:33:34;2.73;;;1.10;;
10430;SDS011;5262;59.958;17.726;2023-07-13T07:36:00;5.67;;;1.47;;
10430;SDS011;5262;59.958;17.726;2023-07-13T07:38:26;7.23;;;1.30;;
10430;SDS011;5262;59.958;17.726;2023-07-13T07:40:52;2.93;;;1.30;;
10430;SDS011;5262;59.958;17.726;2023-07-13T07:43:18;5.07;;;1.67;;
10430;SDS011;5262;59.958;17.726;2023-07-13T07:45:44;4.80;;;1.57;;
10430;SDS011;5262;59.958;17.726;2023-07-13T07:48:10;5.33;;;1.57;;
10430;SDS011;5262;59.958;17.726;2023-07-13T07:50:36;3.70;;;1.30;;
10430;SDS011;5262;59.958;17.726;2023-07-13T07:53:03;6.00;;;1.73;;
10430;SDS011;5262;59.958;17.726;2023-07-13T07:55:32;3.03;;;1.00;;
10430;SDS011;5262;59.958;17.726;2023-07-13T07:57:58;2.50;;;1.20;;
10430;SDS011;5262;59.958;17.726;2023-07-13T08:00:24;6.07;;;1.20;;
10430;SDS011;5262;59.958;17.726;2023-07-13T08:02:49;3.53;;;1.10;;
10430;SDS011;5262;59.958;17.726;2023-07-13T08:05:15;4.37;;;1.00;;
10430;SDS011;5262;59.958;17.726;2023-07-13T08:07:41;5.23;;;1.43;;
10430;SDS011;5262;59.958;17.726;2023-07-13T08:10:07;4.33;;;1.10;;
10430;SDS011;5262;59.958;17.726;2023-07-13T08:12:34;3.97;;;1.20;;
10430;SDS011;5262;59.958;17.726;2023-07-13T08:15:00;6.30;;;1.57;;
10430;SDS011;5262;59.958;17.726;2023-07-13T08:17:26;4.53;;;1.30;;
10430;SDS011;5262;59.958;17.726;2023-07-13T08:19:52;3.20;;;1.20;;
10430;SDS011;5262;59.958;17.726;2023-07-13T08:22:17;3.00;;;0.97;;
10430;SDS011;5262;59.958;17.726;2023-07-13T08:24:43;4.63;;;1.13;;
10430;SDS011;5262;59.958;17.726;2023-07-13T08:27:10;4.05;;;1.40;;
10430;SDS011;5262;59.958;17.726;2023-07-13T08:29:36;3.43;;;1.10;;
10430;SDS011;5262;59.958;17.726;2023-07-13T08:32:02;3.13;;;1.10;;
10430;SDS011;5262;59.958;17.726;2023-07-13T08:34:30;6.17;;;1.20;;
10430;SDS011;5262;59.958;17.726;2023-07-13T08:36:55;6.20;;;1.70;;
10430;SDS011;5262;59.958;17.726;2023-07-13T08:39:21;5.43;;;1.15;;
10430;SDS011;5262;59.958;17.726;2023-07-13T08:41:47;5.88;;;1.10;;
10430;SDS011;5262;59.958;17.726;2023-07-13T08:44:24;5.40;;;1.20;;
10430;SDS011;5262;59.958;17.726;2023-07-13T08:47:01;5.32;;;1.23;;
10430;SDS011;5262;59.958;17.726;2023-07-13T08:49:27;4.22;;;1.25;;
10430;SDS011;5262;59.958;17.726;2023-07-13T08:51:59;2.90;;;1.30;;
10430;SDS011;5262;59.958;17.726;2023-07-13T08:54:37;4.68;;;1.20;;
10430;SDS011;5262;59.958;17.726;2023-07-13T08:57:15;4.03;;;1.30;;
10430;SDS011;5262;59.958;17.726;2023-07-13T08:59:43;3.35;;;1.10;;
10430;SDS011;5262;59.958;17.726;2023-07-13T09:02:26;5.05;;;1.10;;
10430;SDS011;5262;59.958;17.726;2023-07-13T09:05:04;2.95;;;1.17;;
10430;SDS011;5262;59.958;17.726;2023-07-13T09:15:34;5.80;;;1.02;;
10430;SDS011;5262;59.958;17.726;2023-07-13T09:18:26;5.15;;;1.55;;
10430;SDS011;5262;59.958;17.726;2023-07-13T09:20:53;5.18;;;1.20;;
10430;SDS011;5262;59.958;17.726;2023-07-13T09:23:23;6.80;;;1.15;;
10430;SDS011;5262;59.958;17.726;2023-07-13T09:25:54;2.63;;;0.98;;
10430;SDS011;5262;59.958;17.726;2023-07-13T09:28:29;7.18;;;1.30;;
10430;SDS011;5262;59.958;17.726;2023-07-13T09:31:02;6.15;;;1.00;;
10430;SDS011;5262;59.958;17.726;2023-07-13T09:33:40;7.45;;;1.23;;
10430;SDS011;5262;59.958;17.726;2023-07-13T09:36:16;3.78;;;1.20;;
10430;SDS011;5262;59.958;17.726;2023-07-13T09:38:45;5.03;;;1.10;;
10430;SDS011;5262;59.958;17.726;2023-07-13T09:44:06;6.35;;;1.35;;
10430;SDS011;5262;59.958;17.726;2023-07-13T09:46:37;2.38;;;0.95;;
10430;SDS011;5262;59.958;17.726;2023-07-13T09:49:04;5.00;;;0.93;;
10430;SDS011;5262;59.958;17.726;2023-07-13T09:51:30;5.47;;;1.10;;
10430;SDS011;5262;59.958;17.726;2023-07-13T09:53:55;3.25;;;0.90;;
10430;SDS011;5262;59.958;17.726;2023-07-13T09:56:23;3.33;;;1.17;;
10430;SDS011;5262;59.958;17.726;2023-07-13T09:58:54;2.65;;;0.98;;
10430;SDS011;5262;59.958;17.726;2023-07-13T10:01:33;3.08;;;0.90;;
10430;SDS011;5262;59.958;17.726;2023-07-13T10:04:10;3.22;;;1.10;;
10430;SDS011;5262;59.958;17.726;2023-07-13T10:06:43;3.85;;;1.25;;
10430;SDS011;5262;59.958;17.726;2023-07-13T10:09:10;5.95;;;1.30;;
10430;SDS011;5262;59.958;17.726;2023-07-13T10:11:40;3.47;;;1.30;;
10430;SDS011;5262;59.958;17.726;2023-07-13T10:14:11;4.07;;;1.38;;
10430;SDS011;5262;59.958;17.726;2023-07-13T10:16:43;3.58;;;1.25;;
10430;SDS011;5262;59.958;17.726;2023-07-13T10:19:12;3.08;;;1.13;;
10430;SDS011;5262;59.958;17.726;2023-07-13T10:21:55;4.10;;;1.27;;
10430;SDS011;5262;59.958;17.726;2023-07-13T10:24:23;4.57;;;1.10;;
10430;SDS011;5262;59.958;17.726;2023-07-13T10:27:05;3.25;;;1.15;;
10430;SDS011;5262;59.958;17.726;2023-07-13T10:29:48;3.47;;;1.20;;
10430;SDS011;5262;59.958;17.726;2023-07-13T10:32:19;5.25;;;1.30;;
10430;SDS011;5262;59.958;17.726;2023-07-13T10:34:48;4.45;;;1.27;;
10430;SDS011;5262;59.958;17.726;2023-07-13T10:37:24;5.72;;;1.50;;
10430;SDS011;5262;59.958;17.726;2023-07-13T10:39:53;5.65;;;1.20;;
10430;SDS011;5262;59.958;17.726;2023-07-13T10:42:26;4.90;;;1.30;;
10430;SDS011;5262;59.958;17.726;2023-07-13T10:44:57;2.83;;;0.93;;
10430;SDS011;5262;59.958;17.726;2023-07-13T10:47:23;3.85;;;1.00;;
10430;SDS011;5262;59.958;17.726;2023-07-13T10:49:52;2.42;;;1.10;;
10430;SDS011;5262;59.958;17.726;2023-07-13T10:58:12;5.60;;;1.20;;
10430;SDS011;5262;59.958;17.726;2023-07-13T11:03:29;3.80;;;1.20;;
10430;SDS011;5262;59.958;17.726;2023-07-13T11:06:39;2.10;;;1.00;;
10430;SDS011;5262;59.958;17.726;2023-07-13T11:18:49;4.03;;;1.00;;
10430;SDS011;5262;59.958;17.726;2023-07-13T11:23:44;2.00;;;0.73;;
10430;SDS011;5262;59.958;17.726;2023-07-13T11:31:53;1.50;;;0.85;;
10430;SDS011;5262;59.958;17.726;2023-07-13T11:34:27;3.95;;;1.23;;
10430;SDS011;5262;59.958;17.726;2023-07-13T11:37:02;1.80;;;1.08;;
10430;SDS011;5262;59.958;17.726;2023-07-13T11:39:29;5.22;;;1.38;;
10430;SDS011;5262;59.958;17.726;2023-07-13T11:41:59;3.03;;;1.20;;
10430;SDS011;5262;59.958;17.726;2023-07-13T11:44:32;5.47;;;0.98;;
10430;SDS011;5262;59.958;17.726;2023-07-13T11:46:59;4.30;;;1.20;;
10430;SDS011;5262;59.958;17.726;2023-07-13T11:49:42;3.92;;;1.63;;
10430;SDS011;5262;59.958;17.726;2023-07-13T11:52:29;6.22;;;1.20;;
10430;SDS011;5262;59.958;17.726;2023-07-13T11:55:00;3.67;;;0.82;;
10430;SDS011;5262;59.958;17.726;2023-07-13T11:57:33;4.32;;;1.08;;
10430;SDS011;5262;59.958;17.726;2023-07-13T12:00:04;2.63;;;1.00;;
10430;SDS011;5262;59.958;17.726;2023-07-13T12:02:37;2.47;;;1.00;;
10430;SDS011;5262;59.958;17.726;2023-07-13T12:05:08;2.70;;;1.10;;
10430;SDS011;5262;59.958;17.726;2023-07-13T12:07:37;3.72;;;1.08;;
10430;SDS011;5262;59.958;17.726;2023-07-13T12:10:13;1.48;;;0.73;;
10430;SDS011;5262;59.958;17.726;2023-07-13T12:12:58;5.10;;;1.10;;
10430;SDS011;5262;59.958;17.726;2023-07-13T12:15:39;2.67;;;0.80;;
10430;SDS011;5262;59.958;17.726;2023-07-13T12:18:20;2.97;;;0.95;;
10430;SDS011;5262;59.958;17.726;2023-07-13T12:20:48;3.63;;;1.25;;
10430;SDS011;5262;59.958;17.726;2023-07-13T12:23:36;3.28;;;1.00;;
10430;SDS011;5262;59.958;17.726;2023-07-13T12:26:02;2.50;;;0.95;;
10430;SDS011;5262;59.958;17.726;2023-07-13T12:28:33;3.88;;;1.15;;
10430;SDS011;5262;59.958;17.726;2023-07-13T12:31:03;2.60;;;1.02;;
10430;SDS011;5262;59.958;17.726;2023-07-13T12:33:31;6.30;;;1.50;;
10430;SDS011;5262;59.958;17.726;2023-07-13T12:36:02;2.38;;;1.02;;
10430;SDS011;5262;59.958;17.726;2023-07-13T12:38:30;2.17;;;0.80;;
10430;SDS011;5262;59.958;17.726;2023-07-13T12:40:57;4.70;;;1.10;;
10430;SDS011;5262;59.958;17.726;2023-07-13T12:43:23;3.40;;;1.05;;
10430;SDS011;5262;59.958;17.726;2023-07-13T12:48:54;4.18;;;1.27;;
10430;SDS011;5262;59.958;17.726;2023-07-13T12:51:26;4.68;;;1.02;;
10430;SDS011;5262;59.958;17.726;2023-07-13T12:54:05;2.90;;;1.10;;
10430;SDS011;5262;59.958;17.726;2023-07-13T12:56:41;2.80;;;1.25;;
10430;SDS011;5262;59.958;17.726;2023-07-13T12:59:08;3.63;;;0.80;;
10430;SDS011;5262;59.958;17.726;2023-07-13T13:01:42;2.88;;;0.90;;
10430;SDS011;5262;59.958;17.726;2023-07-13T13:04:08;4.38;;;1.15;;
10430;SDS011;5262;59.958;17.726;2023-07-13T13:06:36;4.00;;;0.88;;
10430;SDS011;5262;59.958;17.726;2023-07-13T13:09:02;2.50;;;1.15;;
10430;SDS011;5262;59.958;17.726;2023-07-13T13:11:29;3.40;;;0.93;;
10430;SDS011;5262;59.958;17.726;2023-07-13T13:13:56;2.03;;;0.93;;
10430;SDS011;5262;59.958;17.726;2023-07-13T13:16:23;3.15;;;1.17;;
10430;SDS011;5262;59.958;17.726;2023-07-13T13:18:57;5.15;;;1.00;;
10430;SDS011;5262;59.958;17.726;2023-07-13T13:21:25;6.03;;;1.17;;
10430;SDS011;5262;59.958;17.726;2023-07-13T13:23:51;3.35;;;0.93;;
10430;SDS011;5262;59.958;17.726;2023-07-13T13:26:18;3.85;;;1.20;;
10430;SDS011;5262;59.958;17.726;2023-07-13T13:28:45;2.78;;;0.85;;
10430;SDS011;5262;59.958;17.726;2023-07-13T13:31:13;5.10;;;1.20;;
10430;SDS011;5262;59.958;17.726;2023-07-13T13:33:43;3.65;;;1.15;;
10430;SDS011;5262;59.958;17.726;2023-07-13T13:36:15;6.07;;;0.82;;
10430;SDS011;5262;59.958;17.726;2023-07-13T13:38:42;1.50;;;0.98;;
10430;SDS011;5262;59.958;17.726;2023-07-13T13:41:11;1.70;;;0.70;;
10430;SDS011;5262;59.958;17.726;2023-07-13T13:45:46;3.70;;;0.93;;
10430;SDS011;5262;59.958;17.726;2023-07-13T13:48:16;2.30;;;0.98;;
10430;SDS011;5262;59.958;17.726;2023-07-13T13:50:44;1.27;;;0.65;;
10430;SDS011;5262;59.958;17.726;2023-07-13T13:53:11;2.72;;;0.90;;
10430;SDS011;5262;59.958;17.726;2023-07-13T13:55:38;2.72;;;0.80;;
10430;SDS011;5262;59.958;17.726;2023-07-13T13:58:07;2.97;;;0.95;;
10430;SDS011;5262;59.958;17.726;2023-07-13T14:00:36;3.55;;;0.90;;
10430;SDS011;5262;59.958;17.726;2023-07-13T14:03:02;2.13;;;1.00;;
10430;SDS011;5262;59.958;17.726;2023-07-13T14:05:29;2.55;;;1.00;;
10430;SDS011;5262;59.958;17.726;2023-07-13T14:07:55;2.95;;;1.10;;
10430;SDS011;5262;59.958;17.726;2023-07-13T14:10:22;3.20;;;1.45;;
10430;SDS011;5262;59.958;17.726;2023-07-13T14:12:51;3.55;;;1.25;;
10430;SDS011;5262;59.958;17.726;2023-07-13T14:15:23;3.13;;;1.13;;
10430;SDS011;5262;59.958;17.726;2023-07-13T14:17:52;1.60;;;0.95;;
10430;SDS011;5262;59.958;17.726;2023-07-13T14:20:19;4.15;;;1.20;;
10430;SDS011;5262;59.958;17.726;2023-07-13T14:22:47;3.72;;;1.15;;
10430;SDS011;5262;59.958;17.726;2023-07-13T14:25:14;4.47;;;1.27;;
10430;SDS011;5262;59.958;17.726;2023-07-13T14:27:41;1.83;;;1.20;;
10430;SDS011;5262;59.958;17.726;2023-07-13T14:30:15;3.25;;;0.80;;
10430;SDS011;5262;59.958;17.726;2023-07-13T14:32:42;2.90;;;1.25;;
10430;SDS011;5262;59.958;17.726;2023-07-13T14:35:12;2.88;;;1.00;;
10430;SDS011;5262;59.958;17.726;2023-07-13T14:37:39;2.65;;;1.05;;
10430;SDS011;5262;59.958;17.726;2023-07-13T14:43:01;3.25;;;1.13;;
10430;SDS011;5262;59.958;17.726;2023-07-13T14:45:26;3.45;;;1.17;;
10430;SDS011;5262;59.958;17.726;2023-07-13T14:47:53;2.17;;;0.93;;
10430;SDS011;5262;59.958;17.726;2023-07-13T14:50:20;2.88;;;1.20;;
10430;SDS011;5262;59.958;17.726;2023-07-13T14:52:49;1.77;;;0.87;;
10430;SDS011;5262;59.958;17.726;2023-07-13T14:55:16;5.65;;;1.00;;
10430;SDS011;5262;59.958;17.726;2023-07-13T14:57:43;3.87;;;1.10;;
10430;SDS011;5262;59.958;17.726;2023-07-13T15:00:18;3.38;;;1.20;;
10430;SDS011;5262;59.958;17.726;2023-07-13T15:02:50;3.17;;;0.93;;
10430;SDS011;5262;59.958;17.726;2023-07-13T15:05:20;2.03;;;1.20;;
10430;SDS011;5262;59.958;17.726;2023-07-13T15:07:49;1.48;;;0.80;;
10430;SDS011;5262;59.958;17.726;2023-07-13T15:10:16;2.57;;;1.10;;
10430;SDS011;5262;59.958;17.726;2023-07-13T15:12:44;1.00;;;0.75;;
10430;SDS011;5262;59.958;17.726;2023-07-13T15:15:10;2.92;;;0.80;;
10430;SDS011;5262;59.958;17.726;2023-07-13T15:17:43;1.17;;;0.60;;
10430;SDS011;5262;59.958;17.726;2023-07-13T15:20:19;3.00;;;0.90;;
10430;SDS011;5262;59.958;17.726;2023-07-13T15:22:50;3.27;;;0.90;;
10430;SDS011;5262;59.958;17.726;2023-07-13T15:25:25;3.43;;;0.77;;
10430;SDS011;5262;59.958;17.726;2023-07-13T15:27:53;2.10;;;0.60;;
10430;SDS011;5262;59.958;17.726;2023-07-13T15:30:20;1.20;;;0.73;;
10430;SDS011;5262;59.958;17.726;2023-07-13T15:32:47;5.90;;;0.90;;
10430;SDS011;5262;59.958;17.726;2023-07-13T15:35:17;2.47;;;0.90;;
10430;SDS011;5262;59.958;17.726;2023-07-13T15:37:45;2.30;;;1.03;;
10430;SDS011;5262;59.958;17.726;2023-07-13T15:40:12;2.30;;;0.80;;
10430;SDS011;5262;59.958;17.726;2023-07-13T15:42:38;1.97;;;0.93;;
10430;SDS011;5262;59.958;17.726;2023-07-13T15:45:16;0.90;;;0.60;;